Time;durP1;ratioP1;P1;durP2;ratioP2;P2;SDS_P1;SDS_P2;PMS_P1;PMS_P2;Temp;Humidity;BMP_temperature;BMP_pressure;BME280_temperature;BME280_humidity;BME280_pressure;Samples;Min_cycle;Max_cycle;Signal;HPM_P1;HPM_P2
2020/12/17 00:02:02;;;;;;;3.03;2.83;;;;;;;6.75;72.40;95591.91;6987881;28;20626;-71
2020/12/17 00:05:23;;;;;;;2.60;2.27;;;;;;;6.75;72.57;95599.81;7001805;28;20222;-71
2020/12/17 00:08:43;;;;;;;6.23;4.20;;;;;;;6.64;72.61;95606.81;7003848;28;20216;-71
2020/12/17 00:12:04;;;;;;;7.10;5.40;;;;;;;6.63;72.70;95613.03;7012131;28;20205;-70
2020/12/17 00:15:24;;;;;;;257.80;14.53;;;;;;;6.55;72.64;95612.69;6990776;28;20294;-71
2020/12/17 00:18:44;;;;;;;477.97;20.90;;;;;;;6.46;72.79;95601.81;6994088;28;20198;-71
2020/12/17 00:22:05;;;;;;;734.90;27.57;;;;;;;6.38;72.96;95608.56;6992848;28;20206;-71
2020/12/17 00:25:27;;;;;;;518.37;21.90;;;;;;;6.37;73.78;95596.31;7001597;28;20210;-72
2020/12/17 00:28:48;;;;;;;177.30;10.47;;;;;;;6.32;73.70;95588.69;7004945;28;20218;-71
2020/12/17 00:32:08;;;;;;;284.47;10.70;;;;;;;6.30;73.59;95590.59;6988843;28;20298;-71
2020/12/17 00:35:31;;;;;;;598.83;15.73;;;;;;;6.26;73.76;95591.75;7003167;28;20695;-70
2020/12/17 00:38:51;;;;;;;412.97;13.37;;;;;;;6.25;73.99;95592.69;6980082;28;20227;-71
2020/12/17 00:42:12;;;;;;;538.40;15.53;;;;;;;6.19;74.12;95582.53;6998870;27;20322;-71
2020/12/17 00:45:32;;;;;;;84.00;5.40;;;;;;;6.09;73.48;95585.88;6977492;28;20215;-67
2020/12/17 00:48:54;;;;;;;3.80;2.80;;;;;;;6.05;73.80;95593.16;6994598;28;20221;-71
2020/12/17 00:52:14;;;;;;;3.03;2.70;;;;;;;6.13;73.62;95590.88;6975805;28;20206;-70
2020/12/17 00:55:35;;;;;;;3.53;2.90;;;;;;;6.18;72.76;95586.13;6999867;28;20262;-70
2020/12/17 00:58:55;;;;;;;3.53;3.23;;;;;;;6.12;72.33;95594.44;6999161;28;20917;-71
2020/12/17 01:02:15;;;;;;;2.90;2.60;;;;;;;6.13;72.28;95600.56;6998412;28;20264;-71
2020/12/17 01:05:36;;;;;;;2.13;2.00;;;;;;;6.10;72.26;95592.84;6988578;28;20202;-70
2020/12/17 01:08:56;;;;;;;1.90;1.80;;;;;;;6.10;72.61;95596.31;6989061;28;20241;-71
2020/12/17 01:12:17;;;;;;;2.20;2.00;;;;;;;6.13;72.54;95609.34;7011733;28;20244;-71
2020/12/17 01:15:37;;;;;;;1.90;1.70;;;;;;;6.15;72.57;95612.69;6992258;28;20205;-71
2020/12/17 01:18:57;;;;;;;1.70;1.50;;;;;;;6.14;72.55;95615.41;6990982;28;20218;-71
2020/12/17 01:22:18;;;;;;;2.57;2.27;;;;;;;6.17;72.54;95620.50;7000402;28;20214;-70
2020/12/17 01:25:38;;;;;;;5.80;5.20;;;;;;;6.11;71.92;95631.44;7015627;28;20212;-71
2020/12/17 01:28:59;;;;;;;3.30;2.30;;;;;;;6.02;72.05;95636.38;7000221;28;20218;-71
2020/12/17 01:32:19;;;;;;;3.27;2.57;;;;;;;5.96;71.85;95641.19;7001462;28;20299;-72
2020/12/17 01:35:39;;;;;;;2.77;2.00;;;;;;;5.94;72.19;95648.34;7022336;28;20313;-71
2020/12/17 01:39:00;;;;;;;1.40;1.30;;;;;;;5.98;72.96;95649.88;6989348;28;20291;-71
2020/12/17 01:42:20;;;;;;;1.43;1.33;;;;;;;6.00;73.22;95651.44;6985167;28;20605;-71
2020/12/17 01:45:41;;;;;;;1.63;1.53;;;;;;;5.97;73.41;95650.81;7005400;28;20537;-70
2020/12/17 01:49:02;;;;;;;3.40;1.77;;;;;;;5.98;73.54;95658.63;7006072;28;20217;-71
2020/12/17 01:52:22;;;;;;;2.00;1.53;;;;;;;6.02;73.51;95649.56;7005765;28;20202;-71
2020/12/17 01:55:43;;;;;;;1.30;1.20;;;;;;;6.04;73.20;95657.34;6996878;28;20254;-71
2020/12/17 01:59:12;;;;;;;1.60;1.50;;;;;;;6.04;73.57;95655.56;7021921;28;20229;-70
2020/12/17 02:02:33;;;;;;;2.00;1.80;;;;;;;6.06;73.78;95652.00;6988416;28;20216;-70
2020/12/17 02:05:57;;;;;;;2.40;2.07;;;;;;;5.92;73.09;95655.53;6987300;28;20259;-70
2020/12/17 02:09:18;;;;;;;2.50;2.30;;;;;;;5.84;73.67;95663.03;6993628;28;20226;-70
2020/12/17 02:12:51;;;;;;;1.70;1.60;;;;;;;5.85;73.15;95667.38;6998133;28;20213;-69
2020/12/17 02:16:13;;;;;;;2.73;1.57;;;;;;;5.86;73.09;95663.78;6967217;28;20219;-70
2020/12/17 02:19:34;;;;;;;1.50;1.40;;;;;;;5.80;73.08;95664.19;6988919;28;20313;-69
2020/12/17 02:22:54;;;;;;;2.03;1.93;;;;;;;5.81;73.65;95665.88;6998063;28;20209;-70
2020/12/17 02:26:15;;;;;;;2.47;2.27;;;;;;;5.77;73.83;95661.75;7003320;28;20229;-70
2020/12/17 02:29:35;;;;;;;6.93;5.97;;;;;;;5.78;73.62;95664.28;7002255;28;20218;-71
2020/12/17 02:32:56;;;;;;;5.97;5.23;;;;;;;5.74;72.97;95665.41;7023482;28;20201;-70
2020/12/17 02:36:17;;;;;;;5.17;4.67;;;;;;;5.70;72.65;95669.19;6989270;28;20725;-70
2020/12/17 02:39:37;;;;;;;9.13;8.20;;;;;;;5.66;72.33;95658.94;7004966;28;20304;-70
2020/12/17 02:42:58;;;;;;;19.60;16.00;;;;;;;5.59;72.45;95663.75;6992977;28;20216;-70
2020/12/17 02:46:19;;;;;;;6.13;5.10;;;;;;;5.55;72.82;95665.72;6991477;28;20711;-70
2020/12/17 02:49:40;;;;;;;2.47;2.20;;;;;;;5.63;73.90;95661.78;7007393;28;20223;-68
2020/12/17 02:53:00;;;;;;;2.70;2.50;;;;;;;5.83;74.59;95656.09;7027000;28;20226;-70
2020/12/17 02:56:21;;;;;;;2.70;2.50;;;;;;;6.03;74.83;95660.97;7011630;28;20219;-70
2020/12/17 02:59:42;;;;;;;3.70;2.63;;;;;;;6.20;75.09;95673.03;7009049;28;20694;-70
2020/12/17 03:03:05;;;;;;;2.50;2.30;;;;;;;6.35;74.74;95664.13;7012175;28;20210;-70
2020/12/17 03:06:26;;;;;;;2.77;2.40;;;;;;;6.49;74.78;95661.41;7011752;28;20297;-71
2020/12/17 03:09:47;;;;;;;3.60;2.50;;;;;;;6.56;74.27;95653.94;7019055;28;20233;-70
2020/12/17 03:13:07;;;;;;;2.33;2.13;;;;;;;6.65;74.18;95655.97;7018324;28;20213;-70
2020/12/17 03:16:28;;;;;;;2.50;2.20;;;;;;;6.76;74.28;95656.94;7005905;28;20253;-70
2020/12/17 03:19:48;;;;;;;2.57;2.37;;;;;;;6.86;73.54;95663.28;6999607;28;20286;-70
2020/12/17 03:23:08;;;;;;;2.90;2.63;;;;;;;6.91;73.09;95673.53;7003918;28;20286;-70
2020/12/17 03:26:29;;;;;;;3.83;2.90;;;;;;;6.85;72.89;95669.53;7011939;28;20227;-70
2020/12/17 03:29:49;;;;;;;3.70;3.13;;;;;;;6.78;72.42;95670.06;7032493;27;20225;-70
2020/12/17 03:33:10;;;;;;;2.73;2.50;;;;;;;6.72;72.38;95665.19;7030645;28;20269;-70
2020/12/17 03:36:30;;;;;;;3.17;2.70;;;;;;;6.72;72.50;95673.09;7000387;28;20222;-70
2020/12/17 03:39:51;;;;;;;2.90;2.70;;;;;;;6.73;72.69;95673.00;7022560;28;20342;-71
2020/12/17 03:43:11;;;;;;;4.83;2.37;;;;;;;6.80;73.13;95671.63;7014885;28;20614;-68
2020/12/17 03:46:31;;;;;;;2.70;2.50;;;;;;;6.89;73.19;95678.91;7019965;28;20249;-71
2020/12/17 03:49:52;;;;;;;4.13;2.40;;;;;;;6.96;72.60;95679.34;7029379;28;20343;-71
2020/12/17 03:53:12;;;;;;;3.60;2.10;;;;;;;7.06;72.67;95680.44;7025667;27;20233;-67
2020/12/17 03:56:32;;;;;;;2.20;2.00;;;;;;;7.13;72.63;95681.72;7021683;28;20264;-71
2020/12/17 03:59:53;;;;;;;3.00;2.33;;;;;;;7.20;71.97;95674.19;7038276;27;20209;-72
2020/12/17 04:03:13;;;;;;;2.30;2.10;;;;;;;7.22;71.45;95680.22;6994619;28;20611;-69
2020/12/17 04:06:33;;;;;;;2.30;2.10;;;;;;;7.28;71.48;95685.94;7011068;28;20209;-70
2020/12/17 04:09:54;;;;;;;2.33;1.73;;;;;;;7.33;71.32;95688.25;7023273;27;20248;-71
2020/12/17 04:13:14;;;;;;;2.20;2.00;;;;;;;7.37;71.24;95691.53;7017803;28;20951;-70
2020/12/17 04:16:35;;;;;;;2.17;1.97;;;;;;;7.39;71.07;95690.47;7009119;28;20288;-70
2020/12/17 04:19:55;;;;;;;2.90;1.83;;;;;;;7.45;70.69;95699.75;7028151;28;20667;-71
2020/12/17 04:23:15;;;;;;;2.80;2.00;;;;;;;7.47;70.55;95692.56;7029429;28;20220;-70
2020/12/17 04:26:36;;;;;;;2.47;2.23;;;;;;;7.49;70.24;95688.91;7021882;28;20255;-71
2020/12/17 04:29:59;;;;;;;1.93;1.80;;;;;;;7.50;70.16;95695.84;7028976;27;20217;-71
2020/12/17 04:33:20;;;;;;;3.50;1.57;;;;;;;7.54;69.83;95693.84;7029455;28;20266;-71
2020/12/17 04:36:41;;;;;;;3.40;2.10;;;;;;;7.60;69.50;95688.13;7018580;28;20218;-71
2020/12/17 04:40:02;;;;;;;1.73;1.53;;;;;;;7.70;69.60;95699.72;7019593;28;20221;-71
2020/12/17 04:43:23;;;;;;;1.77;1.67;;;;;;;7.75;69.47;95700.25;7028557;27;20207;-71
2020/12/17 04:46:58;;;;;;;2.27;1.63;;;;;;;7.79;69.10;95698.25;7024401;28;20712;-71
2020/12/17 04:50:19;;;;;;;3.53;2.20;;;;;;;7.83;68.92;95703.22;7020854;28;20210;-69
2020/12/17 04:53:43;;;;;;;4.43;2.40;;;;;;;7.84;68.52;95710.19;7026884;28;20245;-70
2020/12/17 04:57:11;;;;;;;3.13;2.70;;;;;;;7.88;68.48;95714.31;7019736;28;20205;-70
2020/12/17 05:00:34;;;;;;;2.60;2.40;;;;;;;7.90;68.28;95715.03;7033118;28;20209;-70
2020/12/17 05:03:54;;;;;;;4.40;3.13;;;;;;;7.94;68.61;95724.47;7015390;28;20313;-70
2020/12/17 05:07:17;;;;;;;2.80;2.60;;;;;;;7.96;68.42;95722.53;7015116;28;20216;-70
2020/12/17 05:10:37;;;;;;;1.90;1.80;;;;;;;8.01;68.22;95732.78;7018369;28;20254;-70
2020/12/17 05:13:59;;;;;;;2.20;1.90;;;;;;;7.99;67.96;95735.56;7038226;27;20213;-70
2020/12/17 05:17:20;;;;;;;2.20;2.00;;;;;;;8.02;68.07;95743.25;7020623;28;20221;-70
2020/12/17 05:20:41;;;;;;;2.30;2.10;;;;;;;8.05;67.85;95735.09;7016593;28;20299;-70
2020/12/17 05:24:01;;;;;;;2.30;1.80;;;;;;;8.07;67.73;95737.66;7013170;28;20230;-70
2020/12/17 05:27:22;;;;;;;2.20;2.00;;;;;;;8.10;67.65;95734.78;7022568;28;20213;-70
2020/12/17 05:30:43;;;;;;;1.93;1.77;;;;;;;8.12;67.36;95739.00;7030736;28;20631;-70
2020/12/17 05:34:04;;;;;;;2.00;1.80;;;;;;;8.15;67.60;95745.88;7026340;27;20687;-70
2020/12/17 05:37:25;;;;;;;2.87;2.13;;;;;;;8.16;67.32;95748.41;7017977;28;20229;-70
2020/12/17 05:40:47;;;;;;;2.43;2.23;;;;;;;8.18;67.26;95750.97;7025012;28;20217;-70
2020/12/17 05:44:09;;;;;;;3.20;1.90;;;;;;;8.19;66.90;95760.59;7028953;27;20216;-70
2020/12/17 05:47:29;;;;;;;3.83;1.93;;;;;;;8.20;67.26;95749.88;7011759;28;20217;-70
2020/12/17 05:50:52;;;;;;;3.13;1.80;;;;;;;8.22;67.24;95749.78;7012154;28;20249;-72
2020/12/17 05:54:24;;;;;;;3.67;1.93;;;;;;;8.24;67.02;95760.25;7026849;28;20223;-72
2020/12/17 05:57:51;;;;;;;3.10;1.70;;;;;;;8.25;66.89;95767.25;7017049;28;20221;-69
2020/12/17 06:01:13;;;;;;;2.87;1.90;;;;;;;8.29;67.25;95764.28;7023798;28;20210;-70
2020/12/17 06:04:34;;;;;;;2.90;1.90;;;;;;;8.35;66.81;95763.03;7018960;28;20209;-70
2020/12/17 06:08:00;;;;;;;2.13;1.93;;;;;;;8.38;66.70;95770.72;7018203;28;20209;-70
2020/12/17 06:11:23;;;;;;;2.30;2.10;;;;;;;8.38;66.63;95771.56;7013194;28;20222;-70
2020/12/17 06:14:46;;;;;;;3.80;1.70;;;;;;;8.37;66.53;95780.47;7008756;28;20231;-70
2020/12/17 06:18:10;;;;;;;2.30;2.10;;;;;;;8.40;66.34;95782.06;7020293;28;20208;-70
2020/12/17 06:21:31;;;;;;;21.67;16.20;;;;;;;8.42;66.43;95785.41;7012875;28;20230;-69
2020/12/17 06:24:52;;;;;;;3.20;2.63;;;;;;;8.35;65.96;95792.13;7015647;28;20212;-70
2020/12/17 06:28:49;;;;;;;1.73;1.63;;;;;;;8.28;65.70;95796.97;7030242;28;20219;-70
2020/12/17 06:32:16;;;;;;;2.83;2.00;;;;;;;8.24;66.11;95800.78;7004298;28;20245;-69
2020/12/17 06:35:39;;;;;;;4.10;2.27;;;;;;;8.17;66.28;95795.09;7001714;28;20213;-70
2020/12/17 06:39:04;;;;;;;2.93;2.40;;;;;;;8.16;65.92;95803.13;7015220;28;21068;-69
2020/12/17 06:42:37;;;;;;;3.37;1.83;;;;;;;8.16;66.25;95805.75;7002240;28;20625;-69
2020/12/17 06:45:59;;;;;;;1.90;1.57;;;;;;;8.17;66.36;95810.09;7002109;28;20214;-69
2020/12/17 06:49:24;;;;;;;2.33;1.70;;;;;;;8.20;65.97;95809.88;7027005;28;20219;-69
2020/12/17 06:53:05;;;;;;;1.60;1.50;;;;;;;8.25;65.84;95817.53;7016715;28;20284;-69
2020/12/17 06:56:25;;;;;;;2.80;2.03;;;;;;;8.29;66.44;95814.53;6997835;28;20210;-70
2020/12/17 07:00:07;;;;;;;1.60;1.50;;;;;;;8.34;65.82;95825.69;7020548;28;20215;-69
2020/12/17 07:03:47;;;;;;;4.67;3.10;;;;;;;8.41;66.06;95831.38;7013121;28;20233;-70
2020/12/17 07:07:18;;;;;;;6.40;5.67;;;;;;;8.41;65.99;95840.16;7001917;27;20220;-69
2020/12/17 07:10:38;;;;;;;3.13;2.83;;;;;;;8.46;65.72;95838.03;7018067;28;20216;-70
2020/12/17 07:13:59;;;;;;;2.13;1.93;;;;;;;8.50;65.61;95847.44;7027287;28;20687;-72
2020/12/17 07:17:20;;;;;;;3.03;1.97;;;;;;;8.54;65.90;95842.78;7000751;28;20245;-70
2020/12/17 07:20:42;;;;;;;7.37;5.20;;;;;;;8.61;66.15;95850.16;7021565;28;20240;-70
2020/12/17 07:24:07;;;;;;;12.83;8.47;;;;;;;8.68;65.56;95847.94;7017262;28;20211;-72
2020/12/17 07:27:27;;;;;;;10.10;6.80;;;;;;;8.76;65.62;95853.50;7042815;27;20288;-71
2020/12/17 07:30:55;;;;;;;3.50;3.20;;;;;;;8.86;65.26;95869.56;7026831;28;20589;-72
2020/12/17 07:34:16;;;;;;;3.43;2.10;;;;;;;8.92;65.49;95856.75;7001352;28;20219;-71
2020/12/17 07:37:37;;;;;;;2.03;1.83;;;;;;;8.98;65.56;95858.97;7008049;28;20216;-71
2020/12/17 07:40:57;;;;;;;3.20;1.63;;;;;;;9.04;65.61;95863.81;7017096;28;20244;-71
2020/12/17 07:44:35;;;;;;;2.57;2.00;;;;;;;9.13;65.14;95875.53;7002137;28;20212;-71
2020/12/17 07:47:55;;;;;;;2.90;1.70;;;;;;;9.20;65.25;95878.59;7005473;28;20221;-71
2020/12/17 07:51:21;;;;;;;2.00;1.60;;;;;;;9.26;64.79;95878.13;7032705;27;20651;-72
2020/12/17 07:54:44;;;;;;;3.00;1.70;;;;;;;9.31;64.85;95881.28;7030211;28;22938;-73
2020/12/17 07:58:05;;;;;;;1.67;1.57;;;;;;;9.39;64.50;95878.91;7031184;28;20206;-73
2020/12/17 08:01:25;;;;;;;2.20;1.37;;;;;;;9.46;64.46;95874.84;7032569;28;20277;-73
2020/12/17 08:04:47;;;;;;;3.67;1.20;;;;;;;9.53;63.81;95880.53;6997533;28;20292;-73
2020/12/17 08:08:13;;;;;;;1.80;1.40;;;;;;;9.59;64.05;95880.09;7000983;28;20621;-74
2020/12/17 08:11:33;;;;;;;2.20;1.33;;;;;;;9.65;63.51;95891.09;7013074;28;20310;-74
2020/12/17 08:15:07;;;;;;;1.80;1.60;;;;;;;9.72;63.83;95888.78;7027757;28;20636;-67
2020/12/17 08:18:29;;;;;;;1.90;1.50;;;;;;;9.76;63.27;95887.59;7014853;28;20211;-74
2020/12/17 08:21:50;;;;;;;1.70;1.60;;;;;;;9.83;63.13;95880.88;7020196;28;20871;-74
2020/12/17 08:25:10;;;;;;;1.90;1.60;;;;;;;9.90;62.95;95888.28;7016844;28;20715;-73
2020/12/17 08:28:35;;;;;;;1.97;1.50;;;;;;;9.94;63.35;95888.03;7027571;28;20231;-74
2020/12/17 08:31:56;;;;;;;2.83;1.40;;;;;;;10.01;63.11;95886.63;7008394;28;20220;-73
2020/12/17 08:35:28;;;;;;;2.03;1.40;;;;;;;10.07;62.68;95886.97;7013769;28;20216;-73
2020/12/17 08:38:57;;;;;;;1.70;1.60;;;;;;;10.08;62.96;95896.63;7017783;28;20741;-74
2020/12/17 08:42:18;;;;;;;2.80;1.87;;;;;;;10.12;63.59;95897.22;7002036;28;20289;-73
2020/12/17 08:45:39;;;;;;;3.83;2.93;;;;;;;10.14;63.45;95901.47;6978077;28;20219;-74
2020/12/17 08:49:03;;;;;;;4.40;1.80;;;;;;;10.18;63.27;95905.59;6978403;28;20228;-75
2020/12/17 08:52:27;;;;;;;1.77;1.43;;;;;;;10.23;63.12;95907.91;6996261;28;20214;-75
2020/12/17 08:56:13;;;;;;;1.60;1.30;;;;;;;10.28;62.93;95917.19;6994952;28;20212;-75
2020/12/17 08:59:33;;;;;;;1.47;1.10;;;;;;;10.32;62.45;95917.81;6989886;28;20225;-78
2020/12/17 09:02:58;;;;;;;2.27;1.03;;;;;;;10.38;62.58;95921.78;6984530;28;20210;-73
2020/12/17 09:06:24;;;;;;;3.07;1.70;;;;;;;10.43;62.28;95917.81;6984359;28;20212;-73
2020/12/17 09:09:44;;;;;;;2.00;1.40;;;;;;;10.48;62.15;95914.81;6975941;28;20226;-73
2020/12/17 09:13:04;;;;;;;3.83;1.43;;;;;;;10.55;62.31;95924.84;6968000;28;20217;-73
2020/12/17 09:16:27;;;;;;;1.63;1.53;;;;;;;10.62;62.20;95931.34;6984585;28;20691;-74
2020/12/17 09:19:48;;;;;;;1.80;1.40;;;;;;;10.68;62.07;95935.34;6979169;28;21761;-73
2020/12/17 09:23:09;;;;;;;1.63;1.30;;;;;;;10.73;61.64;95935.81;6961028;28;20210;-73
2020/12/17 09:26:30;;;;;;;3.07;1.57;;;;;;;10.76;61.89;95939.06;6991787;28;20217;-72
2020/12/17 09:30:13;;;;;;;1.53;1.43;;;;;;;10.79;62.12;95942.47;6967667;28;20224;-73
2020/12/17 09:33:33;;;;;;;2.83;1.53;;;;;;;10.81;62.23;95944.06;7013080;28;20330;-74
2020/12/17 09:36:56;;;;;;;2.30;1.40;;;;;;;10.85;62.11;95948.16;6974463;28;20641;-73
2020/12/17 09:40:21;;;;;;;3.33;1.67;;;;;;;10.91;61.97;95952.16;6982454;28;20232;-73
2020/12/17 09:43:48;;;;;;;1.60;1.30;;;;;;;10.95;61.94;95950.94;6987404;28;20718;-73
2020/12/17 09:47:09;;;;;;;1.47;1.20;;;;;;;11.00;61.99;95956.72;6986534;28;20215;-73
2020/12/17 09:50:32;;;;;;;3.70;1.50;;;;;;;11.05;61.69;95966.03;6972334;28;20708;-72
2020/12/17 09:54:01;;;;;;;2.37;1.40;;;;;;;11.10;61.45;95973.63;6992294;28;20221;-75
2020/12/17 09:57:21;;;;;;;4.97;2.40;;;;;;;11.14;61.05;95988.38;6995269;28;20220;-74
2020/12/17 10:00:44;;;;;;;4.70;3.53;;;;;;;11.10;61.06;95989.59;7018551;28;20221;-74
2020/12/17 10:04:04;;;;;;;3.00;2.27;;;;;;;11.02;60.41;95989.31;6973871;28;20594;-75
2020/12/17 10:07:25;;;;;;;3.40;2.20;;;;;;;10.91;60.73;95992.00;6975648;28;20882;-74
2020/12/17 10:10:45;;;;;;;2.47;2.10;;;;;;;10.79;60.94;95988.50;6988103;28;20339;-74
2020/12/17 10:14:05;;;;;;;2.97;2.13;;;;;;;10.75;61.40;95982.56;6989208;28;20231;-74
2020/12/17 10:17:26;;;;;;;3.73;2.10;;;;;;;10.75;61.51;95993.19;6975127;28;20241;-74
2020/12/17 10:20:46;;;;;;;4.30;2.03;;;;;;;10.83;62.04;95991.75;7004944;28;20237;-74
2020/12/17 10:24:06;;;;;;;3.83;2.20;;;;;;;10.99;61.91;95995.75;6988209;28;20244;-74
2020/12/17 10:27:27;;;;;;;3.23;2.00;;;;;;;11.10;62.05;95998.41;6971003;28;20214;-74
2020/12/17 10:30:47;;;;;;;2.50;2.20;;;;;;;11.17;61.66;96010.22;6996613;28;20235;-74
2020/12/17 10:34:10;;;;;;;3.43;2.37;;;;;;;11.13;61.59;96005.28;6998547;28;20213;-74
2020/12/17 10:37:30;;;;;;;5.50;2.90;;;;;;;11.12;61.94;96003.59;6969615;28;20221;-74
2020/12/17 10:40:53;;;;;;;4.60;3.60;;;;;;;11.04;61.75;96011.31;6976092;28;20312;-74
2020/12/17 10:44:13;;;;;;;20.67;9.43;;;;;;;10.96;62.17;96024.38;6990086;28;20207;-74
2020/12/17 10:47:34;;;;;;;6.97;4.47;;;;;;;11.57;62.90;96020.34;6998398;28;20593;-74
2020/12/17 10:50:55;;;;;;;3.47;3.17;;;;;;;13.38;61.83;96003.22;7004355;28;20666;-75
2020/12/17 10:54:17;;;;;;;3.20;2.87;;;;;;;14.56;58.56;96007.63;6994143;28;20236;-75
2020/12/17 10:57:38;;;;;;;2.87;2.60;;;;;;;14.70;56.12;96009.88;7016507;28;20229;-74
2020/12/17 11:00:58;;;;;;;4.07;2.40;;;;;;;14.52;55.87;96003.56;7012742;27;20237;-74
2020/12/17 11:04:19;;;;;;;3.63;2.70;;;;;;;14.16;55.34;96005.94;7000981;28;20226;-74
2020/12/17 11:07:39;;;;;;;3.60;2.97;;;;;;;13.77;56.30;96011.34;7022774;28;20210;-74
2020/12/17 11:11:00;;;;;;;6.03;4.70;;;;;;;13.35;56.73;96008.84;6989865;28;20242;-74
2020/12/17 11:14:20;;;;;;;6.20;4.43;;;;;;;13.19;57.27;96016.47;6992833;28;20296;-74
2020/12/17 11:17:43;;;;;;;4.70;4.30;;;;;;;13.92;57.71;96018.84;6998109;28;20237;-74
2020/12/17 11:21:03;;;;;;;5.80;4.70;;;;;;;14.28;56.32;96024.50;6992808;28;20218;-75
2020/12/17 11:24:24;;;;;;;4.57;4.17;;;;;;;14.30;54.98;96025.19;6984777;28;20360;-74
2020/12/17 11:27:44;;;;;;;5.90;5.30;;;;;;;14.32;54.82;96017.88;7009147;28;20259;-74
2020/12/17 11:31:06;;;;;;;4.77;4.37;;;;;;;14.11;54.78;96010.00;7003337;28;20227;-74
2020/12/17 11:34:27;;;;;;;4.50;4.10;;;;;;;13.77;54.83;96028.22;6982459;28;20223;-75
2020/12/17 11:37:50;;;;;;;6.33;5.60;;;;;;;13.41;55.28;96024.31;7005141;28;20222;-74
2020/12/17 11:41:11;;;;;;;4.97;4.23;;;;;;;13.10;55.56;96023.44;6989295;28;20272;-75
2020/12/17 11:44:32;;;;;;;9.40;4.60;;;;;;;12.90;55.98;96019.81;6996350;28;20253;-74
2020/12/17 11:47:53;;;;;;;4.97;4.00;;;;;;;12.68;56.12;96017.28;6975911;27;20218;-74
2020/12/17 11:51:16;;;;;;;4.10;3.70;;;;;;;12.56;56.70;96017.50;6995830;28;20241;-75
2020/12/17 11:54:36;;;;;;;3.57;3.00;;;;;;;12.46;57.00;96018.28;6979707;28;20269;-73
2020/12/17 11:57:57;;;;;;;5.20;3.87;;;;;;;12.43;57.23;96013.19;6981639;28;20222;-74
2020/12/17 12:01:19;;;;;;;5.10;3.90;;;;;;;12.44;57.60;96012.22;6978437;28;20236;-74
2020/12/17 12:04:39;;;;;;;5.23;4.00;;;;;;;12.45;58.34;96018.41;6985500;28;20432;-74
2020/12/17 12:08:02;;;;;;;5.27;3.80;;;;;;;12.49;58.18;96014.50;6954139;28;20210;-74
2020/12/17 12:11:25;;;;;;;4.47;3.10;;;;;;;12.44;58.43;96016.69;6990557;28;20639;-74
2020/12/17 12:14:45;;;;;;;4.83;3.30;;;;;;;12.49;58.45;96014.50;6978021;28;20207;-73
2020/12/17 12:18:06;;;;;;;5.20;4.60;;;;;;;12.56;58.54;96017.50;6945872;28;20238;-74
2020/12/17 12:21:26;;;;;;;2.63;2.43;;;;;;;12.56;59.23;96012.16;7012785;27;20293;-74
2020/12/17 12:24:50;;;;;;;16.63;10.47;;;;;;;12.55;59.95;96013.97;6981716;28;20249;-74
2020/12/17 12:28:10;;;;;;;3.93;3.00;;;;;;;12.56;60.60;96014.81;6969563;28;20219;-75
2020/12/17 12:31:31;;;;;;;5.33;3.93;;;;;;;12.60;60.45;96008.25;6978896;28;20312;-75
2020/12/17 12:34:51;;;;;;;4.30;2.43;;;;;;;12.62;60.27;96006.31;7005659;27;20267;-74
2020/12/17 12:38:12;;;;;;;3.80;2.00;;;;;;;12.66;60.42;96003.25;6985178;28;20280;-74
2020/12/17 12:41:34;;;;;;;2.50;1.60;;;;;;;12.71;60.34;96001.06;7008142;27;20840;-75
2020/12/17 12:44:55;;;;;;;3.87;2.83;;;;;;;12.66;60.05;96003.25;6987581;28;20214;-72
2020/12/17 12:48:15;;;;;;;4.23;3.60;;;;;;;12.47;60.33;96001.28;6998205;28;20230;-73
2020/12/17 12:51:35;;;;;;;5.37;4.50;;;;;;;12.36;61.05;95997.88;7011308;28;20217;-73
2020/12/17 12:54:56;;;;;;;5.10;4.60;;;;;;;12.29;61.39;96002.84;6987288;28;20211;-73
2020/12/17 12:58:16;;;;;;;5.50;4.27;;;;;;;12.24;61.69;96009.53;6993242;28;20258;-73
2020/12/17 13:01:38;;;;;;;4.70;4.10;;;;;;;12.19;61.90;96004.59;7010582;28;20211;-73
2020/12/17 13:04:58;;;;;;;6.10;4.43;;;;;;;12.19;62.00;96007.25;6989953;28;20225;-73
2020/12/17 13:08:19;;;;;;;5.00;4.40;;;;;;;12.20;62.13;96008.94;6973330;28;20207;-73
2020/12/17 13:11:40;;;;;;;4.73;3.90;;;;;;;12.21;61.99;96013.31;6999250;28;20667;-71
2020/12/17 13:15:00;;;;;;;7.77;6.20;;;;;;;12.21;62.37;96002.66;6993293;28;20222;-72
2020/12/17 13:18:23;;;;;;;5.30;4.30;;;;;;;12.15;62.35;96000.50;6991369;27;20218;-73
2020/12/17 13:21:44;;;;;;;7.60;5.10;;;;;;;12.14;62.45;95997.94;6993979;28;20320;-73
2020/12/17 13:25:04;;;;;;;4.77;4.00;;;;;;;12.13;62.68;95988.28;6990325;28;20214;-74
2020/12/17 13:28:24;;;;;;;6.13;4.63;;;;;;;12.14;62.84;95988.16;6977767;28;20214;-75
2020/12/17 13:31:45;;;;;;;5.07;4.00;;;;;;;12.14;62.90;95996.13;6998542;28;20242;-74
2020/12/17 13:35:05;;;;;;;5.10;3.83;;;;;;;12.16;63.02;95994.22;7011023;27;20239;-75
2020/12/17 13:38:28;;;;;;;4.00;3.60;;;;;;;12.18;63.02;95994.06;6988624;28;20247;-74
2020/12/17 13:41:49;;;;;;;4.63;3.57;;;;;;;12.19;62.87;95996.59;6991253;28;20305;-75
2020/12/17 13:45:10;;;;;;;4.77;3.43;;;;;;;12.21;62.69;96001.81;6968821;28;20696;-75
2020/12/17 13:48:31;;;;;;;4.00;3.60;;;;;;;12.20;62.37;96005.44;6988014;28;20276;-74
2020/12/17 13:51:51;;;;;;;4.37;3.60;;;;;;;12.19;62.43;95999.25;6994614;28;20602;-74
2020/12/17 13:55:12;;;;;;;4.67;3.80;;;;;;;12.19;63.04;95999.25;6997397;28;20744;-72
2020/12/17 13:58:35;;;;;;;7.17;4.00;;;;;;;12.15;63.43;96007.63;7007002;28;20225;-74
2020/12/17 14:01:57;;;;;;;4.27;3.87;;;;;;;12.08;63.45;95999.31;7001407;28;20214;-74
2020/12/17 14:05:18;;;;;;;4.87;4.17;;;;;;;12.03;63.77;96012.16;6987158;28;20215;-73
2020/12/17 14:08:39;;;;;;;5.03;4.53;;;;;;;11.95;63.56;96015.47;6999967;28;20263;-73
2020/12/17 14:12:04;;;;;;;6.90;3.80;;;;;;;11.86;63.87;96007.38;6991553;28;20213;-74
2020/12/17 14:15:24;;;;;;;4.43;3.47;;;;;;;11.69;64.23;96013.19;7003209;28;20218;-74
2020/12/17 14:18:49;;;;;;;7.30;3.63;;;;;;;11.68;64.36;96012.34;6972042;28;20217;-73
2020/12/17 14:22:12;;;;;;;4.10;3.70;;;;;;;11.61;64.37;96003.19;6993211;28;20215;-73
2020/12/17 14:25:33;;;;;;;5.83;3.63;;;;;;;11.52;64.55;96012.72;6990099;28;20226;-74
2020/12/17 14:28:53;;;;;;;5.23;3.70;;;;;;;11.46;64.91;96010.59;7004958;28;20218;-74
2020/12/17 14:32:13;;;;;;;3.93;3.33;;;;;;;11.42;65.05;96008.28;7018382;28;20222;-74
2020/12/17 14:35:34;;;;;;;8.07;3.50;;;;;;;11.42;65.13;96009.13;7025548;28;20223;-74
2020/12/17 14:38:57;;;;;;;3.80;3.33;;;;;;;11.47;65.47;96016.72;7014479;28;20233;-73
2020/12/17 14:42:18;;;;;;;3.93;3.33;;;;;;;11.50;65.20;96011.19;7023575;28;20594;-73
2020/12/17 14:45:38;;;;;;;4.07;3.67;;;;;;;11.50;65.27;96012.03;7013449;28;20700;-74
2020/12/17 14:48:59;;;;;;;5.93;3.50;;;;;;;11.49;65.17;96013.00;7009357;28;20762;-76
2020/12/17 14:52:22;;;;;;;5.33;4.07;;;;;;;11.50;64.87;96016.50;7006250;28;20698;-76
2020/12/17 14:55:43;;;;;;;5.27;3.40;;;;;;;11.48;64.51;96013.09;7014561;28;20243;-76
2020/12/17 14:59:06;;;;;;;7.70;5.63;;;;;;;11.47;64.59;96011.41;7020362;28;20221;-76
2020/12/17 15:02:27;;;;;;;9.60;8.20;;;;;;;11.43;64.74;96016.13;6990627;28;20226;-76
2020/12/17 15:05:47;;;;;;;6.90;6.20;;;;;;;11.39;64.80;96022.69;7014284;28;20217;-76
2020/12/17 15:09:07;;;;;;;8.77;7.00;;;;;;;11.35;65.28;96023.91;7026328;28;20244;-76
2020/12/17 15:12:29;;;;;;;29.80;21.20;;;;;;;11.27;65.30;96038.75;7007111;28;20218;-76
2020/12/17 15:15:49;;;;;;;15.43;11.93;;;;;;;11.22;65.42;96030.31;7011786;28;20267;-76
2020/12/17 15:19:10;;;;;;;14.73;11.33;;;;;;;11.15;65.56;96022.81;6995450;28;20225;-76
2020/12/17 15:22:30;;;;;;;13.97;9.93;;;;;;;11.06;65.41;96022.69;7012484;27;20839;-76
2020/12/17 15:25:50;;;;;;;17.97;12.10;;;;;;;10.98;65.74;96025.94;7029461;27;20240;-76
2020/12/17 15:29:13;;;;;;;8.07;7.20;;;;;;;10.92;65.48;96025.56;7026784;28;20225;-76
2020/12/17 15:32:33;;;;;;;12.13;9.80;;;;;;;10.87;66.16;96033.03;7030832;28;20308;-77
2020/12/17 15:35:54;;;;;;;10.77;7.90;;;;;;;10.84;65.81;96035.94;7011785;28;20603;-76
2020/12/17 15:39:14;;;;;;;6.43;4.10;;;;;;;10.81;66.40;96030.88;7011126;28;20279;-77
2020/12/17 15:42:38;;;;;;;5.67;3.60;;;;;;;10.81;66.28;96036.19;7016659;28;20207;-77
2020/12/17 15:46:03;;;;;;;4.73;3.33;;;;;;;10.83;66.53;96045.72;7010347;28;20266;-77
2020/12/17 15:49:23;;;;;;;6.07;3.80;;;;;;;10.83;66.48;96045.72;7026018;28;20247;-77
2020/12/17 15:52:44;;;;;;;7.30;4.43;;;;;;;10.85;66.47;96053.59;7029731;27;20557;-77
2020/12/17 15:56:05;;;;;;;5.13;4.37;;;;;;;10.84;66.78;96057.22;7007624;28;20207;-77